createdAt,value
2023-02-11T00:01:52.820Z,22.90
2023-02-11T00:04:19.666Z,24.10
2023-02-11T00:06:46.456Z,21.95
2023-02-11T00:09:13.290Z,23.77
2023-02-11T00:11:40.164Z,23.58
2023-02-11T00:14:08.426Z,24.20
2023-02-11T00:16:35.390Z,24.73
2023-02-11T00:19:03.906Z,24.83
2023-02-11T00:21:30.712Z,24.73
2023-02-11T00:23:59.766Z,24.92
2023-02-11T00:26:32.196Z,24.48
2023-02-11T00:28:59.613Z,25.45
2023-02-11T00:31:27.309Z,25.67
2023-02-11T00:33:54.565Z,26.17
2023-02-11T00:36:24.539Z,26.15
2023-02-11T00:38:52.602Z,26.23
2023-02-11T00:41:20.513Z,27.05
2023-02-11T00:43:47.869Z,26.63
2023-02-11T00:46:15.486Z,26.70
2023-02-11T00:48:42.628Z,27.65
2023-02-11T00:51:09.731Z,27.80
2023-02-11T00:53:36.845Z,28.75
2023-02-11T00:56:04.143Z,29.73
2023-02-11T00:58:31.334Z,27.23
2023-02-11T01:00:58.249Z,28.88
2023-02-11T01:03:25.466Z,29.40
2023-02-11T01:05:52.637Z,30.17
2023-02-11T01:08:20.178Z,30.95
2023-02-11T01:10:54.989Z,26.63
2023-02-11T01:13:22.441Z,28.85
2023-02-11T01:15:49.873Z,30.67
2023-02-11T01:18:18.047Z,28.90
2023-02-11T01:20:45.025Z,29.00
2023-02-11T01:23:11.974Z,30.40
2023-02-11T01:25:38.880Z,31.70
2023-02-11T01:28:05.898Z,30.38
2023-02-11T01:30:32.925Z,28.58
2023-02-11T01:32:59.768Z,28.55
2023-02-11T01:35:26.676Z,29.52
2023-02-11T01:37:53.544Z,32.92
2023-02-11T01:40:20.515Z,29.70
2023-02-11T01:42:49.427Z,30.17
2023-02-11T01:45:57.638Z,28.60
2023-02-11T01:48:36.979Z,30.40
2023-02-11T01:51:09.775Z,31.63
2023-02-11T01:53:57.138Z,31.52
2023-02-11T01:56:45.453Z,34.70
2023-02-11T01:59:17.830Z,26.70
2023-02-11T02:01:49.413Z,28.65
2023-02-11T02:04:18.124Z,34.20
2023-02-11T02:06:56.526Z,33.75
2023-02-11T02:09:27.240Z,33.25
2023-02-11T02:11:54.363Z,33.78
2023-02-11T02:14:21.540Z,32.75
2023-02-11T02:16:48.455Z,34.33
2023-02-11T02:19:49.028Z,32.90
2023-02-11T02:22:38.422Z,30.50
2023-02-11T02:25:28.818Z,33.13
2023-02-11T02:28:09.832Z,33.25
2023-02-11T02:30:52.395Z,25.88
2023-02-11T02:33:59.163Z,36.83
2023-02-11T02:36:38.883Z,31.13
2023-02-11T02:39:26.500Z,33.67
2023-02-11T02:41:53.700Z,36.20
2023-02-11T02:44:20.890Z,21.80
2023-02-11T02:46:47.794Z,33.22
2023-02-11T02:49:16.496Z,28.20
2023-02-11T02:52:04.502Z,30.15
2023-02-11T02:55:00.605Z,23.05
2023-02-11T02:58:05.177Z,29.95
2023-02-11T03:01:05.000Z,28.90
2023-02-11T03:03:59.446Z,31.15
2023-02-11T03:06:32.305Z,31.08
2023-02-11T03:09:04.741Z,26.15
2023-02-11T03:11:31.652Z,28.00
2023-02-11T03:14:01.364Z,23.65
2023-02-11T03:16:28.692Z,28.23
2023-02-11T03:19:21.858Z,28.38
2023-02-11T03:21:50.206Z,25.13
2023-02-11T03:24:22.098Z,25.67
2023-02-11T03:26:54.393Z,22.70
2023-02-11T03:29:35.929Z,28.02
2023-02-11T03:32:28.055Z,26.27
2023-02-11T03:37:51.812Z,25.13
2023-02-11T03:40:25.428Z,25.17
2023-02-11T03:42:59.271Z,23.77
2023-02-11T03:45:27.626Z,24.80
2023-02-11T03:48:00.794Z,25.20
2023-02-11T03:50:30.647Z,20.05
2023-02-11T03:52:59.365Z,24.08
2023-02-11T03:55:26.564Z,18.35
2023-02-11T03:57:53.467Z,23.83
2023-02-11T04:00:20.418Z,22.00
2023-02-11T04:02:47.539Z,22.52
2023-02-11T04:05:16.246Z,27.23
2023-02-11T04:07:43.069Z,21.00
2023-02-11T04:10:11.831Z,24.55
2023-02-11T04:12:38.625Z,23.75
2023-02-11T04:15:06.403Z,22.67
2023-02-11T04:17:33.186Z,19.77
2023-02-11T04:20:00.044Z,23.58
2023-02-11T04:22:26.884Z,18.40
2023-02-11T04:24:53.804Z,18.45
2023-02-11T04:27:20.702Z,18.95
2023-02-11T04:29:47.626Z,19.80
2023-02-11T04:32:14.544Z,18.08
2023-02-11T04:34:41.434Z,17.88
2023-02-11T04:37:08.521Z,13.02
2023-02-11T04:39:35.637Z,20.08
2023-02-11T04:42:02.492Z,19.02
2023-02-11T04:44:29.337Z,17.92
2023-02-11T04:46:56.232Z,18.70
2023-02-11T04:49:23.417Z,17.80
2023-02-11T04:51:50.405Z,16.40
2023-02-11T04:54:17.577Z,18.08
2023-02-11T04:56:44.783Z,15.55
2023-02-11T04:59:13.390Z,17.70
2023-02-11T05:01:40.611Z,16.38
2023-02-11T05:04:07.514Z,16.45
2023-02-11T05:06:34.449Z,14.32
2023-02-11T05:09:01.241Z,15.77
2023-02-11T05:11:28.049Z,14.77
2023-02-11T05:13:54.995Z,13.20
2023-02-11T05:16:22.022Z,15.70
2023-02-11T05:18:52.420Z,16.15
2023-02-11T05:21:19.907Z,16.35
2023-02-11T05:23:46.714Z,15.27
2023-02-11T05:26:14.086Z,15.18
2023-02-11T05:28:41.556Z,14.52
2023-02-11T05:31:09.254Z,16.10
2023-02-11T05:33:36.209Z,13.18
2023-02-11T05:36:06.132Z,14.07
2023-02-11T05:38:33.648Z,11.73
2023-02-11T05:41:00.946Z,12.48
2023-02-11T05:43:27.956Z,14.38
2023-02-11T05:45:55.022Z,10.52
2023-02-11T05:48:22.011Z,12.05
2023-02-11T05:50:49.279Z,13.02
2023-02-11T05:53:16.062Z,12.70
2023-02-11T05:55:43.118Z,10.25
2023-02-11T05:58:09.949Z,11.93
2023-02-11T06:00:36.871Z,13.80
2023-02-11T06:03:04.638Z,13.68
2023-02-11T06:05:32.285Z,11.00
2023-02-11T06:07:59.343Z,13.23
2023-02-11T06:10:26.794Z,12.15
2023-02-11T06:12:53.832Z,12.75
2023-02-11T06:15:20.794Z,10.15
2023-02-11T06:17:47.736Z,11.23
2023-02-11T06:20:14.563Z,10.57
2023-02-11T06:22:41.904Z,8.45
2023-02-11T06:25:09.047Z,10.77
2023-02-11T06:27:36.034Z,12.15
2023-02-11T06:30:03.826Z,11.32
2023-02-11T06:32:46.562Z,13.38
2023-02-11T06:35:14.825Z,11.07
2023-02-11T06:37:42.330Z,11.45
2023-02-11T06:40:10.203Z,13.95
2023-02-11T06:42:39.331Z,9.52
2023-02-11T06:45:09.492Z,9.63
2023-02-11T06:47:37.264Z,9.75
2023-02-11T06:50:04.516Z,12.35
2023-02-11T06:52:31.320Z,14.35
2023-02-11T06:54:58.196Z,11.13
2023-02-11T06:57:25.028Z,13.32
2023-02-11T06:59:52.160Z,10.95
2023-02-11T07:02:20.906Z,12.02
2023-02-11T07:04:47.975Z,12.70
2023-02-11T07:07:14.795Z,11.85
2023-02-11T07:09:41.840Z,12.25
2023-02-11T07:12:10.388Z,11.70
2023-02-11T07:14:37.352Z,12.50
2023-02-11T07:17:04.901Z,10.75
2023-02-11T07:19:31.948Z,10.25
2023-02-11T07:21:58.741Z,12.25
2023-02-11T07:24:25.756Z,7.30
2023-02-11T07:26:53.633Z,9.43
2023-02-11T07:29:20.499Z,8.18
2023-02-11T07:31:47.419Z,10.18
2023-02-11T07:34:14.319Z,10.07
2023-02-11T07:36:43.690Z,10.75
2023-02-11T07:39:10.898Z,7.20
2023-02-11T07:41:38.396Z,10.60
2023-02-11T07:44:05.834Z,7.35
2023-02-11T07:46:32.996Z,8.80
2023-02-11T07:48:59.856Z,9.45
2023-02-11T07:51:28.899Z,8.00
2023-02-11T07:53:57.496Z,7.90
2023-02-11T07:56:24.602Z,7.15
2023-02-11T07:58:51.625Z,9.18
2023-02-11T08:01:22.898Z,10.27
2023-02-11T08:03:49.860Z,7.35
2023-02-11T08:06:18.665Z,9.88
2023-02-11T08:08:45.506Z,7.50
2023-02-11T08:11:14.913Z,9.57
2023-02-11T08:13:42.510Z,9.18
2023-02-11T08:16:09.896Z,6.95
2023-02-11T08:18:36.966Z,5.50
2023-02-11T08:21:08.758Z,5.60
2023-02-11T08:23:39.914Z,4.90
2023-02-11T08:26:09.269Z,4.80
2023-02-11T08:28:37.453Z,4.40
2023-02-11T08:31:08.845Z,4.38
2023-02-11T08:33:36.091Z,3.85
2023-02-11T08:36:09.391Z,2.90
2023-02-11T08:38:36.406Z,2.75
2023-02-11T08:41:03.761Z,2.80
2023-02-11T08:43:30.842Z,4.40
2023-02-11T08:45:59.513Z,3.55
2023-02-11T08:48:28.793Z,2.53
2023-02-11T08:50:56.342Z,2.38
2023-02-11T08:53:23.631Z,3.50
2023-02-11T08:55:51.955Z,3.47
2023-02-11T08:58:19.381Z,4.00
2023-02-11T09:00:46.638Z,2.80
2023-02-11T09:03:14.139Z,4.10
2023-02-11T09:05:45.845Z,2.83
2023-02-11T09:08:13.362Z,3.67
2023-02-11T09:10:40.517Z,4.55
2023-02-11T09:13:07.943Z,3.63
2023-02-11T09:15:35.521Z,3.13
2023-02-11T09:18:02.634Z,3.47
2023-02-11T09:20:29.495Z,2.85
2023-02-11T09:22:58.127Z,3.80
2023-02-11T09:25:25.547Z,4.88
2023-02-11T09:27:53.864Z,4.10
2023-02-11T09:30:21.024Z,3.20
2023-02-11T09:32:48.080Z,4.97
2023-02-11T09:35:14.934Z,4.20
2023-02-11T09:37:41.774Z,4.68
2023-02-11T09:40:09.331Z,3.15
2023-02-11T09:43:04.541Z,5.47
2023-02-11T09:45:31.597Z,2.75
2023-02-11T09:48:04.376Z,4.25
2023-02-11T09:50:39.815Z,4.32
2023-02-11T09:53:12.517Z,3.10
2023-02-11T09:55:42.816Z,4.32
2023-02-11T09:58:33.934Z,3.35
2023-02-11T10:01:40.680Z,9.93
2023-02-11T10:04:38.680Z,5.38
2023-02-11T10:07:22.382Z,4.25
2023-02-11T10:10:02.356Z,4.75
2023-02-11T10:13:08.959Z,3.65
2023-02-11T10:15:46.848Z,7.10
2023-02-11T10:18:38.209Z,3.75
2023-02-11T10:21:32.760Z,4.87
2023-02-11T10:24:02.875Z,2.97
2023-02-11T10:26:31.203Z,4.70
2023-02-11T10:29:02.488Z,6.53
2023-02-11T10:31:38.526Z,4.65
2023-02-11T10:34:12.893Z,4.88
2023-02-11T10:36:42.352Z,7.82
2023-02-11T10:39:16.740Z,5.88
2023-02-11T10:41:51.551Z,9.13
2023-02-11T10:44:27.529Z,8.85
2023-02-11T10:46:54.769Z,8.95
2023-02-11T10:49:42.547Z,7.20
2023-02-11T10:52:26.823Z,7.80
2023-02-11T10:55:16.548Z,9.38
2023-02-11T10:57:51.519Z,7.63
2023-02-11T11:00:34.117Z,7.00
2023-02-11T11:03:01.753Z,4.55
2023-02-11T11:05:32.306Z,5.97
2023-02-11T11:08:01.115Z,6.10
2023-02-11T11:10:37.484Z,6.93
2023-02-11T11:13:04.402Z,6.68
2023-02-11T11:15:32.233Z,6.97
2023-02-11T11:18:22.531Z,6.18
2023-02-11T11:20:58.954Z,6.72
2023-02-11T11:23:26.228Z,6.13
2023-02-11T11:26:06.449Z,6.75
2023-02-11T11:28:39.036Z,8.32
2023-02-11T11:31:14.022Z,6.00
2023-02-11T11:33:44.077Z,6.28
2023-02-11T11:36:15.835Z,4.05
2023-02-11T11:38:57.414Z,6.40
2023-02-11T11:41:27.670Z,3.55
2023-02-11T11:44:01.107Z,5.05
2023-02-11T11:46:31.017Z,5.80
2023-02-11T11:49:04.264Z,6.03
2023-02-11T11:51:32.281Z,5.60
2023-02-11T11:54:11.663Z,9.50
2023-02-11T11:56:48.108Z,7.75
2023-02-11T11:59:16.780Z,8.48
2023-02-11T12:02:11.182Z,5.32
2023-02-11T12:04:47.916Z,9.45
2023-02-11T12:07:33.110Z,9.20
2023-02-11T12:10:32.363Z,9.63
2023-02-11T12:13:23.962Z,7.10
2023-02-11T12:16:02.494Z,6.22
2023-02-11T12:18:47.541Z,7.00
2023-02-11T12:21:54.365Z,11.98
2023-02-11T12:24:47.407Z,7.28
2023-02-11T12:27:54.005Z,7.00
2023-02-11T12:30:53.862Z,6.93
2023-02-11T12:33:49.283Z,7.40
2023-02-11T12:36:45.432Z,5.20
2023-02-11T12:39:35.012Z,6.95
2023-02-11T12:43:02.687Z,6.15
2023-02-11T12:45:46.678Z,5.47
2023-02-11T12:48:53.344Z,5.38
2023-02-11T12:51:52.700Z,5.07
2023-02-11T12:54:40.590Z,6.22
2023-02-11T12:57:33.449Z,6.15
2023-02-11T13:00:07.965Z,5.60
2023-02-11T13:02:44.808Z,5.18
2023-02-11T13:05:23.750Z,5.88
2023-02-11T13:07:53.226Z,6.95
2023-02-11T13:10:28.087Z,4.80
2023-02-11T13:13:16.197Z,5.22
2023-02-11T13:15:48.789Z,6.15
2023-02-11T13:18:52.105Z,6.43
2023-02-11T13:21:29.308Z,4.78
2023-02-11T13:24:24.056Z,5.32
2023-02-11T13:27:10.896Z,4.72
2023-02-11T13:30:04.303Z,6.43
2023-02-11T13:33:03.451Z,5.32
2023-02-11T13:35:38.454Z,4.47
2023-02-11T13:38:18.110Z,4.25
2023-02-11T13:40:45.653Z,5.00
2023-02-11T13:43:22.382Z,5.60
2023-02-11T13:45:50.795Z,4.18
2023-02-11T13:48:27.003Z,6.50
2023-02-11T13:50:56.683Z,7.38
2023-02-11T13:53:23.977Z,5.13
2023-02-11T13:55:52.797Z,6.43
2023-02-11T13:58:37.209Z,8.10
2023-02-11T14:01:04.169Z,9.13
2023-02-11T14:03:54.235Z,5.80
2023-02-11T14:06:43.902Z,7.07
2023-02-11T14:09:35.184Z,7.60
2023-02-11T14:12:26.531Z,8.63
2023-02-11T14:15:17.952Z,6.55
2023-02-11T14:17:44.942Z,5.47
2023-02-11T14:20:36.638Z,5.97
2023-02-11T14:23:04.902Z,6.85
2023-02-11T14:25:32.230Z,4.38
2023-02-11T14:28:12.068Z,6.45
2023-02-11T14:31:02.955Z,5.55
2023-02-11T14:34:07.950Z,4.90
2023-02-11T14:36:46.376Z,5.97
2023-02-11T14:39:45.273Z,4.78
2023-02-11T14:42:19.996Z,5.10
2023-02-11T14:44:49.353Z,7.60
2023-02-11T14:47:20.061Z,5.10
2023-02-11T14:49:47.984Z,11.05
2023-02-11T14:52:27.089Z,6.68
2023-02-11T14:55:19.647Z,5.10
2023-02-11T14:58:11.728Z,5.88
2023-02-11T15:01:09.172Z,5.05
2023-02-11T15:03:41.016Z,4.32
2023-02-11T15:06:20.625Z,4.60
2023-02-11T15:08:58.335Z,3.85
2023-02-11T15:11:26.040Z,5.03
2023-02-11T15:13:55.466Z,4.20
2023-02-11T15:16:24.636Z,4.43
2023-02-11T15:18:58.574Z,4.57
2023-02-11T15:21:30.929Z,5.07
2023-02-11T15:24:19.245Z,5.13
2023-02-11T15:26:55.785Z,4.45
2023-02-11T15:29:27.356Z,4.68
2023-02-11T15:32:16.096Z,5.68
2023-02-11T15:34:44.659Z,5.00
2023-02-11T15:37:30.241Z,4.97
2023-02-11T15:40:11.534Z,5.60
2023-02-11T15:42:52.209Z,5.85
2023-02-11T15:45:28.865Z,5.95
2023-02-11T15:47:59.730Z,4.60
2023-02-11T15:50:30.341Z,4.68
2023-02-11T15:53:01.150Z,4.35
2023-02-11T15:55:28.902Z,5.50
2023-02-11T15:57:58.206Z,5.88
2023-02-11T16:00:34.195Z,5.57
2023-02-11T16:03:01.302Z,5.10
2023-02-11T16:05:32.203Z,5.20
2023-02-11T16:07:59.926Z,4.57
2023-02-11T16:10:36.030Z,5.57
2023-02-11T16:13:19.876Z,7.20
2023-02-11T16:15:52.954Z,7.82
2023-02-11T16:18:40.407Z,6.50
2023-02-11T16:21:15.093Z,6.78
2023-02-11T16:23:42.485Z,5.93
2023-02-11T16:26:29.083Z,7.78
2023-02-11T16:29:16.812Z,6.60
2023-02-11T16:31:47.860Z,6.43
2023-02-11T16:34:21.023Z,7.43
2023-02-11T16:36:48.907Z,5.72
2023-02-11T16:39:17.931Z,5.38
2023-02-11T16:41:46.388Z,5.03
2023-02-11T16:44:14.560Z,4.72
2023-02-11T16:46:41.942Z,4.70
2023-02-11T16:49:28.493Z,4.57
2023-02-11T16:52:01.248Z,5.10
2023-02-11T16:54:31.707Z,5.30
2023-02-11T16:57:00.768Z,5.07
2023-02-11T16:59:31.951Z,5.53
2023-02-11T17:02:06.926Z,4.37
2023-02-11T17:04:37.896Z,4.00
2023-02-11T17:07:08.355Z,3.03
2023-02-11T17:09:37.446Z,3.10
2023-02-11T17:12:07.906Z,2.00
2023-02-11T17:14:36.534Z,2.60
2023-02-11T17:17:06.482Z,2.17
2023-02-11T17:19:34.954Z,2.40
2023-02-11T17:22:04.501Z,3.90
2023-02-11T17:24:38.866Z,2.80
2023-02-11T17:27:06.173Z,2.92
2023-02-11T17:29:33.680Z,2.33
2023-02-11T17:32:01.362Z,2.67
2023-02-11T17:34:29.834Z,3.05
2023-02-11T17:36:58.044Z,2.85
2023-02-11T17:39:25.918Z,2.47
2023-02-11T17:41:55.455Z,1.77
2023-02-11T17:44:22.543Z,1.98
2023-02-11T17:46:49.349Z,1.83
2023-02-11T17:49:16.578Z,1.90
2023-02-11T17:51:43.417Z,1.50
2023-02-11T17:54:15.901Z,1.58
2023-02-11T17:56:43.308Z,1.77
2023-02-11T17:59:11.982Z,1.80
2023-02-11T18:01:40.219Z,1.85
2023-02-11T18:04:08.732Z,1.77
2023-02-11T18:06:36.697Z,1.63
2023-02-11T18:09:04.569Z,1.95
2023-02-11T18:11:32.972Z,1.55
2023-02-11T18:14:01.261Z,1.38
2023-02-11T18:16:29.536Z,1.30
2023-02-11T18:18:57.833Z,1.33
2023-02-11T18:21:25.142Z,1.23
2023-02-11T18:23:56.038Z,1.40
2023-02-11T18:26:27.698Z,1.48
2023-02-11T18:28:57.901Z,1.80
2023-02-11T18:31:26.729Z,1.67
2023-02-11T18:33:54.698Z,1.20
2023-02-11T18:36:23.401Z,2.15
2023-02-11T18:38:52.708Z,1.90
2023-02-11T18:41:23.891Z,1.80
2023-02-11T18:43:51.407Z,1.23
2023-02-11T18:46:21.465Z,1.60
2023-02-11T18:48:50.092Z,1.50
2023-02-11T18:51:21.110Z,1.80
2023-02-11T18:53:48.093Z,1.92
2023-02-11T18:56:17.815Z,1.40
2023-02-11T18:58:44.683Z,1.83
2023-02-11T19:01:24.541Z,2.00
2023-02-11T19:03:51.818Z,2.00
2023-02-11T19:06:27.234Z,1.60
2023-02-11T19:09:00.109Z,1.67
2023-02-11T19:11:48.638Z,2.10
2023-02-11T19:14:24.420Z,1.55
2023-02-11T19:16:53.678Z,1.73
2023-02-11T19:19:23.417Z,1.92
2023-02-11T19:21:50.963Z,2.47
2023-02-11T19:24:21.724Z,2.40
2023-02-11T19:26:50.093Z,2.03
2023-02-11T19:29:17.751Z,1.48
2023-02-11T19:31:46.624Z,1.38
2023-02-11T19:34:15.529Z,1.67
2023-02-11T19:36:43.475Z,2.55
2023-02-11T19:39:10.562Z,1.88
2023-02-11T19:41:38.174Z,2.92
2023-02-11T19:44:08.646Z,2.97
2023-02-11T19:46:42.032Z,3.13
2023-02-11T19:49:11.820Z,3.33
2023-02-11T19:51:39.624Z,2.97
2023-02-11T19:54:08.949Z,1.85
2023-02-11T19:56:37.922Z,2.20
2023-02-11T19:59:09.019Z,1.70
2023-02-11T20:04:04.540Z,1.77
2023-02-11T20:06:32.706Z,1.83
2023-02-11T20:09:01.927Z,1.52
2023-02-11T20:11:31.535Z,1.73
2023-02-11T20:13:59.062Z,1.73
2023-02-11T20:16:44.624Z,2.40
2023-02-11T20:19:18.360Z,1.65
2023-02-11T20:21:47.590Z,1.92
2023-02-11T20:24:16.335Z,2.45
2023-02-11T20:26:43.394Z,2.10
2023-02-11T20:29:10.290Z,2.50
2023-02-11T20:31:38.086Z,2.63
2023-02-11T20:34:05.114Z,2.47
2023-02-11T20:36:35.792Z,3.38
2023-02-11T20:39:05.603Z,3.03
2023-02-11T20:41:35.434Z,2.80
2023-02-11T20:44:05.532Z,4.60
2023-02-11T20:46:35.279Z,4.25
2023-02-11T20:49:03.126Z,5.05
2023-02-11T20:51:38.308Z,5.15
2023-02-11T20:54:07.211Z,5.00
2023-02-11T20:56:36.244Z,4.72
2023-02-11T20:59:05.145Z,4.95
2023-02-11T21:01:35.912Z,5.15
2023-02-11T21:04:07.134Z,4.00
2023-02-11T21:06:39.388Z,3.60
2023-02-11T21:09:09.344Z,2.22
2023-02-11T21:11:36.393Z,1.85
2023-02-11T21:14:03.768Z,1.85
2023-02-11T21:16:31.912Z,1.85
2023-02-11T21:18:58.799Z,1.10
2023-02-11T21:21:26.280Z,1.08
2023-02-11T21:23:53.198Z,0.85
2023-02-11T21:26:20.030Z,0.88
2023-02-11T21:28:48.779Z,1.17
2023-02-11T21:31:27.326Z,1.08
2023-02-11T21:33:59.420Z,1.33
2023-02-11T21:36:28.615Z,1.52
2023-02-11T21:38:55.761Z,1.27
2023-02-11T21:41:22.811Z,1.20
2023-02-11T21:43:50.615Z,1.33
2023-02-11T21:46:18.161Z,1.35
2023-02-11T21:48:45.178Z,1.00
2023-02-11T21:51:17.655Z,1.25
2023-02-11T21:53:44.777Z,1.95
2023-02-11T21:56:14.678Z,1.48
2023-02-11T21:58:41.947Z,1.50
2023-02-11T22:01:17.512Z,1.33
2023-02-11T22:03:45.197Z,1.13
2023-02-11T22:06:14.918Z,1.17
2023-02-11T22:08:41.844Z,1.50
2023-02-11T22:11:12.352Z,1.80
2023-02-11T22:13:39.824Z,1.38
2023-02-11T22:16:09.500Z,1.30
2023-02-11T22:18:37.271Z,1.98
2023-02-11T22:21:09.930Z,1.63
2023-02-11T22:23:37.551Z,2.22
2023-02-11T22:26:06.610Z,1.83
2023-02-11T22:28:34.066Z,1.83
2023-02-11T22:31:01.147Z,2.25
2023-02-11T22:33:28.424Z,2.22
2023-02-11T22:35:59.795Z,1.83
2023-02-11T22:38:28.526Z,2.00
2023-02-11T22:40:55.756Z,1.92
2023-02-11T22:43:22.766Z,2.95
2023-02-11T22:45:50.188Z,5.97
2023-02-11T22:48:17.508Z,9.80
2023-02-11T22:50:44.648Z,4.20
2023-02-11T22:53:11.553Z,3.30
2023-02-11T22:55:39.520Z,3.83
2023-02-11T22:58:06.724Z,4.55
2023-02-11T23:00:38.063Z,5.90
2023-02-11T23:03:05.969Z,4.30
2023-02-11T23:05:40.818Z,4.57
2023-02-11T23:08:08.919Z,6.22
2023-02-11T23:10:37.421Z,6.75
2023-02-11T23:13:05.427Z,5.93
2023-02-11T23:15:32.660Z,6.60
2023-02-11T23:17:59.772Z,5.40
2023-02-11T23:20:26.611Z,4.25
2023-02-11T23:22:53.514Z,3.92
2023-02-11T23:25:20.322Z,3.97
2023-02-11T23:27:47.180Z,4.22
2023-02-11T23:30:14.470Z,3.47
2023-02-11T23:32:41.370Z,3.20
2023-02-11T23:35:08.379Z,3.05
2023-02-11T23:37:35.251Z,3.72
2023-02-11T23:40:02.111Z,3.88
2023-02-11T23:42:29.255Z,4.40
2023-02-11T23:44:56.127Z,5.00
2023-02-11T23:47:22.966Z,3.80
2023-02-11T23:49:49.797Z,4.32
2023-02-11T23:52:16.665Z,4.38
2023-02-11T23:54:44.973Z,3.15
2023-02-11T23:57:11.765Z,3.10
2023-02-11T23:59:38.695Z,3.40
